sensor_id;sensor_type;location;lat;lon;timestamp;temperature;humidity
3816;DHT22;1923;48.154;11.536;2022-09-09T00:01:04;18.40;99.90
3816;DHT22;1923;48.154;11.536;2022-09-09T00:03:42;18.30;99.90
3816;DHT22;1923;48.154;11.536;2022-09-09T00:06:20;18.30;99.90
3816;DHT22;1923;48.154;11.536;2022-09-09T00:08:57;18.30;99.90
3816;DHT22;1923;48.154;11.536;2022-09-09T00:11:36;18.40;99.90
3816;DHT22;1923;48.154;11.536;2022-09-09T00:14:13;18.30;99.90
3816;DHT22;1923;48.154;11.536;2022-09-09T00:16:49;18.30;99.90
3816;DHT22;1923;48.154;11.536;2022-09-09T00:19:22;18.30;99.90
3816;DHT22;1923;48.154;11.536;2022-09-09T00:21:58;18.30;99.90
3816;DHT22;1923;48.154;11.536;2022-09-09T00:24:33;18.30;99.90
3816;DHT22;1923;48.154;11.536;2022-09-09T00:27:13;18.30;99.90
3816;DHT22;1923;48.154;11.536;2022-09-09T00:29:46;18.30;99.90
3816;DHT22;1923;48.154;11.536;2022-09-09T00:32:17;18.30;99.90
3816;DHT22;1923;48.154;11.536;2022-09-09T00:34:49;18.30;99.90
3816;DHT22;1923;48.154;11.536;2022-09-09T00:37:19;18.20;99.90
3816;DHT22;1923;48.154;11.536;2022-09-09T00:39:49;18.30;99.90
3816;DHT22;1923;48.154;11.536;2022-09-09T00:42:25;18.40;99.90
3816;DHT22;1923;48.154;11.536;2022-09-09T00:44:59;18.40;99.90
3816;DHT22;1923;48.154;11.536;2022-09-09T00:47:39;18.30;99.90
3816;DHT22;1923;48.154;11.536;2022-09-09T00:50:17;18.30;99.90
3816;DHT22;1923;48.154;11.536;2022-09-09T00:52:57;18.30;99.90
3816;DHT22;1923;48.154;11.536;2022-09-09T00:55:33;18.30;99.90
3816;DHT22;1923;48.154;11.536;2022-09-09T00:58:06;18.30;99.90
3816;DHT22;1923;48.154;11.536;2022-09-09T01:00:41;18.20;99.90
3816;DHT22;1923;48.154;11.536;2022-09-09T01:03:33;18.20;99.90
3816;DHT22;1923;48.154;11.536;2022-09-09T01:06:12;18.30;99.90
3816;DHT22;1923;48.154;11.536;2022-09-09T01:08:56;18.20;99.90
3816;DHT22;1923;48.154;11.536;2022-09-09T01:11:27;18.30;99.90
3816;DHT22;1923;48.154;11.536;2022-09-09T01:14:11;18.20;99.90
3816;DHT22;1923;48.154;11.536;2022-09-09T01:16:48;18.20;99.90
3816;DHT22;1923;48.154;11.536;2022-09-09T01:19:22;18.00;99.90
3816;DHT22;1923;48.154;11.536;2022-09-09T01:21:59;18.10;99.90
3816;DHT22;1923;48.154;11.536;2022-09-09T01:24:35;18.20;99.90
3816;DHT22;1923;48.154;11.536;2022-09-09T01:27:09;18.20;99.90
3816;DHT22;1923;48.154;11.536;2022-09-09T01:29:38;18.20;99.90
3816;DHT22;1923;48.154;11.536;2022-09-09T01:32:41;18.10;99.90
3816;DHT22;1923;48.154;11.536;2022-09-09T01:35:12;18.20;99.90
3816;DHT22;1923;48.154;11.536;2022-09-09T01:37:42;18.20;99.90
3816;DHT22;1923;48.154;11.536;2022-09-09T01:40:12;18.10;99.90
3816;DHT22;1923;48.154;11.536;2022-09-09T01:42:45;18.10;99.90
3816;DHT22;1923;48.154;11.536;2022-09-09T01:45:13;18.20;99.90
3816;DHT22;1923;48.154;11.536;2022-09-09T01:47:41;18.20;99.90
3816;DHT22;1923;48.154;11.536;2022-09-09T01:50:12;18.10;99.90
3816;DHT22;1923;48.154;11.536;2022-09-09T01:52:42;18.20;99.90
3816;DHT22;1923;48.154;11.536;2022-09-09T01:55:11;18.20;99.90
3816;DHT22;1923;48.154;11.536;2022-09-09T01:57:44;18.30;99.90
3816;DHT22;1923;48.154;11.536;2022-09-09T02:00:18;18.40;99.90
3816;DHT22;1923;48.154;11.536;2022-09-09T02:02:54;18.20;99.90
3816;DHT22;1923;48.154;11.536;2022-09-09T02:05:31;18.00;99.90
3816;DHT22;1923;48.154;11.536;2022-09-09T02:08:05;17.90;99.90
3816;DHT22;1923;48.154;11.536;2022-09-09T02:10:39;17.90;99.90
3816;DHT22;1923;48.154;11.536;2022-09-09T02:13:13;17.90;99.90
3816;DHT22;1923;48.154;11.536;2022-09-09T02:15:53;17.90;99.90
3816;DHT22;1923;48.154;11.536;2022-09-09T02:18:26;18.10;99.90
3816;DHT22;1923;48.154;11.536;2022-09-09T02:20:57;18.00;99.90
3816;DHT22;1923;48.154;11.536;2022-09-09T02:23:34;18.00;99.90
3816;DHT22;1923;48.154;11.536;2022-09-09T02:26:03;17.90;99.90
3816;DHT22;1923;48.154;11.536;2022-09-09T02:28:32;17.90;99.90
3816;DHT22;1923;48.154;11.536;2022-09-09T02:31:04;17.90;99.90
3816;DHT22;1923;48.154;11.536;2022-09-09T02:33:37;17.90;99.90
3816;DHT22;1923;48.154;11.536;2022-09-09T02:36:08;17.80;99.90
3816;DHT22;1923;48.154;11.536;2022-09-09T02:38:38;17.90;99.90
3816;DHT22;1923;48.154;11.536;2022-09-09T02:41:07;17.90;99.90
3816;DHT22;1923;48.154;11.536;2022-09-09T02:43:36;17.90;99.90
3816;DHT22;1923;48.154;11.536;2022-09-09T02:46:14;17.80;99.90
3816;DHT22;1923;48.154;11.536;2022-09-09T02:48:52;17.80;99.90
3816;DHT22;1923;48.154;11.536;2022-09-09T02:51:27;17.80;99.90
3816;DHT22;1923;48.154;11.536;2022-09-09T02:54:06;17.80;99.90
3816;DHT22;1923;48.154;11.536;2022-09-09T02:56:42;17.80;99.90
3816;DHT22;1923;48.154;11.536;2022-09-09T02:59:11;17.70;99.90
3816;DHT22;1923;48.154;11.536;2022-09-09T03:01:43;17.80;99.90
3816;DHT22;1923;48.154;11.536;2022-09-09T03:04:16;17.60;99.90
3816;DHT22;1923;48.154;11.536;2022-09-09T03:06:44;17.70;99.90
3816;DHT22;1923;48.154;11.536;2022-09-09T03:09:12;17.60;99.90
3816;DHT22;1923;48.154;11.536;2022-09-09T03:11:40;17.60;99.90
3816;DHT22;1923;48.154;11.536;2022-09-09T03:14:08;17.60;99.90
3816;DHT22;1923;48.154;11.536;2022-09-09T03:16:37;17.70;99.90
3816;DHT22;1923;48.154;11.536;2022-09-09T03:19:07;17.70;99.90
3816;DHT22;1923;48.154;11.536;2022-09-09T03:21:35;17.70;99.90
3816;DHT22;1923;48.154;11.536;2022-09-09T03:24:03;17.70;99.90
3816;DHT22;1923;48.154;11.536;2022-09-09T03:26:31;17.50;99.90
3816;DHT22;1923;48.154;11.536;2022-09-09T03:28:59;17.60;99.90
3816;DHT22;1923;48.154;11.536;2022-09-09T03:31:27;17.60;99.90
3816;DHT22;1923;48.154;11.536;2022-09-09T03:33:57;17.60;99.90
3816;DHT22;1923;48.154;11.536;2022-09-09T03:36:27;17.40;99.90
3816;DHT22;1923;48.154;11.536;2022-09-09T03:38:55;17.30;99.90
3816;DHT22;1923;48.154;11.536;2022-09-09T03:41:23;17.30;99.90
3816;DHT22;1923;48.154;11.536;2022-09-09T03:43:51;17.30;99.90
3816;DHT22;1923;48.154;11.536;2022-09-09T03:46:20;17.30;99.90
3816;DHT22;1923;48.154;11.536;2022-09-09T03:48:48;17.40;99.90
3816;DHT22;1923;48.154;11.536;2022-09-09T03:51:17;17.40;99.90
3816;DHT22;1923;48.154;11.536;2022-09-09T03:53:46;17.40;99.90
3816;DHT22;1923;48.154;11.536;2022-09-09T03:56:14;17.30;99.90
3816;DHT22;1923;48.154;11.536;2022-09-09T03:58:42;17.30;99.90
3816;DHT22;1923;48.154;11.536;2022-09-09T04:01:12;17.30;99.90
3816;DHT22;1923;48.154;11.536;2022-09-09T04:03:41;17.40;99.90
3816;DHT22;1923;48.154;11.536;2022-09-09T04:06:09;17.40;99.90
3816;DHT22;1923;48.154;11.536;2022-09-09T04:08:40;17.50;99.90
3816;DHT22;1923;48.154;11.536;2022-09-09T04:11:09;17.40;99.90
3816;DHT22;1923;48.154;11.536;2022-09-09T04:13:38;17.40;99.90
3816;DHT22;1923;48.154;11.536;2022-09-09T04:16:08;17.40;99.90
3816;DHT22;1923;48.154;11.536;2022-09-09T04:18:37;17.40;99.90
3816;DHT22;1923;48.154;11.536;2022-09-09T04:21:05;17.50;99.90
3816;DHT22;1923;48.154;11.536;2022-09-09T04:23:34;17.50;99.90
3816;DHT22;1923;48.154;11.536;2022-09-09T04:26:03;17.50;99.90
3816;DHT22;1923;48.154;11.536;2022-09-09T04:28:34;17.50;99.90
3816;DHT22;1923;48.154;11.536;2022-09-09T04:31:08;17.40;99.90
3816;DHT22;1923;48.154;11.536;2022-09-09T04:33:36;17.30;99.90
3816;DHT22;1923;48.154;11.536;2022-09-09T04:36:07;17.40;99.90
3816;DHT22;1923;48.154;11.536;2022-09-09T04:38:35;17.40;99.90
3816;DHT22;1923;48.154;11.536;2022-09-09T04:41:04;17.40;99.90
3816;DHT22;1923;48.154;11.536;2022-09-09T04:43:33;17.40;99.90
3816;DHT22;1923;48.154;11.536;2022-09-09T04:46:01;17.30;99.90
3816;DHT22;1923;48.154;11.536;2022-09-09T04:48:29;17.30;99.90
3816;DHT22;1923;48.154;11.536;2022-09-09T04:50:59;17.30;99.90
3816;DHT22;1923;48.154;11.536;2022-09-09T04:53:28;17.30;99.90
3816;DHT22;1923;48.154;11.536;2022-09-09T04:56:01;17.30;99.90
3816;DHT22;1923;48.154;11.536;2022-09-09T04:58:30;17.30;99.90
3816;DHT22;1923;48.154;11.536;2022-09-09T05:01:08;17.30;99.90
3816;DHT22;1923;48.154;11.536;2022-09-09T05:03:36;17.30;99.90
3816;DHT22;1923;48.154;11.536;2022-09-09T05:06:06;17.40;99.90
3816;DHT22;1923;48.154;11.536;2022-09-09T05:08:35;17.50;99.90
3816;DHT22;1923;48.154;11.536;2022-09-09T05:11:04;17.50;99.90
3816;DHT22;1923;48.154;11.536;2022-09-09T05:13:31;17.40;99.90
3816;DHT22;1923;48.154;11.536;2022-09-09T05:16:06;17.50;99.90
3816;DHT22;1923;48.154;11.536;2022-09-09T05:18:38;17.50;99.90
3816;DHT22;1923;48.154;11.536;2022-09-09T05:21:06;17.50;99.90
3816;DHT22;1923;48.154;11.536;2022-09-09T05:23:34;17.50;99.90
3816;DHT22;1923;48.154;11.536;2022-09-09T05:26:04;17.50;99.90
3816;DHT22;1923;48.154;11.536;2022-09-09T05:28:34;17.40;99.90
3816;DHT22;1923;48.154;11.536;2022-09-09T05:31:04;17.50;99.90
3816;DHT22;1923;48.154;11.536;2022-09-09T05:33:36;17.40;99.90
3816;DHT22;1923;48.154;11.536;2022-09-09T05:36:08;17.50;99.90
3816;DHT22;1923;48.154;11.536;2022-09-09T05:38:37;17.50;99.90
3816;DHT22;1923;48.154;11.536;2022-09-09T05:41:06;17.50;99.90
3816;DHT22;1923;48.154;11.536;2022-09-09T05:43:34;17.40;99.90
3816;DHT22;1923;48.154;11.536;2022-09-09T05:46:03;17.40;99.90
3816;DHT22;1923;48.154;11.536;2022-09-09T05:48:33;17.40;99.90
3816;DHT22;1923;48.154;11.536;2022-09-09T05:51:03;17.50;99.90
3816;DHT22;1923;48.154;11.536;2022-09-09T05:53:33;17.50;99.90
3816;DHT22;1923;48.154;11.536;2022-09-09T05:56:02;17.50;99.90
3816;DHT22;1923;48.154;11.536;2022-09-09T05:58:31;17.60;99.90
3816;DHT22;1923;48.154;11.536;2022-09-09T06:01:04;17.50;99.90
3816;DHT22;1923;48.154;11.536;2022-09-09T06:03:34;17.60;99.90
3816;DHT22;1923;48.154;11.536;2022-09-09T06:06:05;17.70;99.90
3816;DHT22;1923;48.154;11.536;2022-09-09T06:08:34;17.70;99.90
3816;DHT22;1923;48.154;11.536;2022-09-09T06:11:04;17.70;99.90
3816;DHT22;1923;48.154;11.536;2022-09-09T06:13:35;17.70;99.90
3816;DHT22;1923;48.154;11.536;2022-09-09T06:16:04;17.60;99.90
3816;DHT22;1923;48.154;11.536;2022-09-09T06:18:33;17.70;99.90
3816;DHT22;1923;48.154;11.536;2022-09-09T06:21:05;17.80;99.90
3816;DHT22;1923;48.154;11.536;2022-09-09T06:23:34;17.80;99.90
3816;DHT22;1923;48.154;11.536;2022-09-09T06:26:04;17.80;99.90
3816;DHT22;1923;48.154;11.536;2022-09-09T06:28:33;17.90;99.90
3816;DHT22;1923;48.154;11.536;2022-09-09T06:31:03;18.00;99.90
3816;DHT22;1923;48.154;11.536;2022-09-09T06:33:33;18.00;99.90
3816;DHT22;1923;48.154;11.536;2022-09-09T06:36:04;18.10;99.90
3816;DHT22;1923;48.154;11.536;2022-09-09T06:38:32;18.00;99.90
3816;DHT22;1923;48.154;11.536;2022-09-09T06:41:00;18.10;99.90
3816;DHT22;1923;48.154;11.536;2022-09-09T06:43:28;18.10;99.90
3816;DHT22;1923;48.154;11.536;2022-09-09T06:45:57;18.30;99.90
3816;DHT22;1923;48.154;11.536;2022-09-09T06:48:25;18.20;99.90
3816;DHT22;1923;48.154;11.536;2022-09-09T06:51:04;18.20;99.90
3816;DHT22;1923;48.154;11.536;2022-09-09T06:53:33;18.20;99.90
3816;DHT22;1923;48.154;11.536;2022-09-09T06:56:13;18.30;99.90
3816;DHT22;1923;48.154;11.536;2022-09-09T06:58:44;18.40;99.90
3816;DHT22;1923;48.154;11.536;2022-09-09T07:01:14;18.50;99.90
3816;DHT22;1923;48.154;11.536;2022-09-09T07:03:44;18.50;99.90
3816;DHT22;1923;48.154;11.536;2022-09-09T07:06:16;18.60;99.90
3816;DHT22;1923;48.154;11.536;2022-09-09T07:08:48;18.60;99.90
3816;DHT22;1923;48.154;11.536;2022-09-09T07:11:24;18.60;99.90
3816;DHT22;1923;48.154;11.536;2022-09-09T07:13:54;18.70;99.90
3816;DHT22;1923;48.154;11.536;2022-09-09T07:16:23;18.60;99.90
3816;DHT22;1923;48.154;11.536;2022-09-09T07:18:52;18.60;99.90
3816;DHT22;1923;48.154;11.536;2022-09-09T07:21:26;18.70;99.90
3816;DHT22;1923;48.154;11.536;2022-09-09T07:23:55;18.60;99.90
3816;DHT22;1923;48.154;11.536;2022-09-09T07:26:25;18.60;99.90
3816;DHT22;1923;48.154;11.536;2022-09-09T07:28:54;18.50;99.90
3816;DHT22;1923;48.154;11.536;2022-09-09T07:31:26;18.50;99.90
3816;DHT22;1923;48.154;11.536;2022-09-09T07:33:54;18.60;99.90
3816;DHT22;1923;48.154;11.536;2022-09-09T07:36:24;18.60;99.90
3816;DHT22;1923;48.154;11.536;2022-09-09T07:39:02;18.70;99.90
3816;DHT22;1923;48.154;11.536;2022-09-09T07:41:33;18.90;99.90
3816;DHT22;1923;48.154;11.536;2022-09-09T07:44:06;19.10;99.90
3816;DHT22;1923;48.154;11.536;2022-09-09T07:46:35;19.20;99.90
3816;DHT22;1923;48.154;11.536;2022-09-09T07:49:06;19.30;99.90
3816;DHT22;1923;48.154;11.536;2022-09-09T07:51:36;19.20;99.90
3816;DHT22;1923;48.154;11.536;2022-09-09T07:54:07;19.30;99.90
3816;DHT22;1923;48.154;11.536;2022-09-09T07:56:36;19.40;99.90
3816;DHT22;1923;48.154;11.536;2022-09-09T07:59:06;19.40;99.90
3816;DHT22;1923;48.154;11.536;2022-09-09T08:01:36;19.40;99.90
3816;DHT22;1923;48.154;11.536;2022-09-09T08:04:07;19.40;99.90
3816;DHT22;1923;48.154;11.536;2022-09-09T08:06:37;19.60;99.90
3816;DHT22;1923;48.154;11.536;2022-09-09T08:09:08;19.60;99.90
3816;DHT22;1923;48.154;11.536;2022-09-09T08:11:37;19.50;99.90
3816;DHT22;1923;48.154;11.536;2022-09-09T08:14:06;19.60;99.90
3816;DHT22;1923;48.154;11.536;2022-09-09T08:16:37;19.60;99.90
3816;DHT22;1923;48.154;11.536;2022-09-09T08:19:06;19.70;99.90
3816;DHT22;1923;48.154;11.536;2022-09-09T08:21:36;19.90;99.90
3816;DHT22;1923;48.154;11.536;2022-09-09T08:24:08;19.90;99.90
3816;DHT22;1923;48.154;11.536;2022-09-09T08:26:38;20.00;99.90
3816;DHT22;1923;48.154;11.536;2022-09-09T08:29:07;19.90;99.90
3816;DHT22;1923;48.154;11.536;2022-09-09T08:31:38;19.90;99.90
3816;DHT22;1923;48.154;11.536;2022-09-09T08:34:07;20.10;99.90
3816;DHT22;1923;48.154;11.536;2022-09-09T08:36:38;20.20;99.90
3816;DHT22;1923;48.154;11.536;2022-09-09T08:39:09;20.30;99.90
3816;DHT22;1923;48.154;11.536;2022-09-09T08:41:59;20.30;99.90
3816;DHT22;1923;48.154;11.536;2022-09-09T08:44:44;20.50;99.90
3816;DHT22;1923;48.154;11.536;2022-09-09T08:47:33;20.40;99.90
3816;DHT22;1923;48.154;11.536;2022-09-09T08:50:13;20.30;99.90
3816;DHT22;1923;48.154;11.536;2022-09-09T08:52:51;20.20;99.90
3816;DHT22;1923;48.154;11.536;2022-09-09T08:55:25;20.10;99.90
3816;DHT22;1923;48.154;11.536;2022-09-09T08:57:57;20.00;99.90
3816;DHT22;1923;48.154;11.536;2022-09-09T09:00:33;19.90;99.90
3816;DHT22;1923;48.154;11.536;2022-09-09T09:03:09;19.90;99.90
3816;DHT22;1923;48.154;11.536;2022-09-09T09:05:44;19.80;99.90
3816;DHT22;1923;48.154;11.536;2022-09-09T09:08:20;19.70;99.90
3816;DHT22;1923;48.154;11.536;2022-09-09T09:10:56;19.40;99.90
3816;DHT22;1923;48.154;11.536;2022-09-09T09:13:32;19.30;99.90
3816;DHT22;1923;48.154;11.536;2022-09-09T09:16:17;19.20;99.90
3816;DHT22;1923;48.154;11.536;2022-09-09T09:18:46;19.70;99.90
3816;DHT22;1923;48.154;11.536;2022-09-09T09:21:16;19.80;99.90
3816;DHT22;1923;48.154;11.536;2022-09-09T09:23:56;19.80;99.90
3816;DHT22;1923;48.154;11.536;2022-09-09T09:26:29;19.90;99.90
3816;DHT22;1923;48.154;11.536;2022-09-09T09:28:59;19.80;99.90
3816;DHT22;1923;48.154;11.536;2022-09-09T09:31:29;20.00;99.90
3816;DHT22;1923;48.154;11.536;2022-09-09T09:33:58;19.90;99.90
3816;DHT22;1923;48.154;11.536;2022-09-09T09:36:34;19.80;99.90
3816;DHT22;1923;48.154;11.536;2022-09-09T09:39:03;20.00;99.90
3816;DHT22;1923;48.154;11.536;2022-09-09T09:41:53;20.10;99.90
3816;DHT22;1923;48.154;11.536;2022-09-09T09:44:25;20.10;99.90
3816;DHT22;1923;48.154;11.536;2022-09-09T09:47:05;20.10;99.90
3816;DHT22;1923;48.154;11.536;2022-09-09T09:49:34;20.20;99.90
3816;DHT22;1923;48.154;11.536;2022-09-09T09:52:02;20.20;99.90
3816;DHT22;1923;48.154;11.536;2022-09-09T09:54:33;20.20;99.90
3816;DHT22;1923;48.154;11.536;2022-09-09T09:57:11;20.20;99.90
3816;DHT22;1923;48.154;11.536;2022-09-09T09:59:41;20.00;99.90
3816;DHT22;1923;48.154;11.536;2022-09-09T10:02:18;20.10;99.90
3816;DHT22;1923;48.154;11.536;2022-09-09T10:04:47;20.00;99.90
3816;DHT22;1923;48.154;11.536;2022-09-09T10:07:19;20.00;99.90
3816;DHT22;1923;48.154;11.536;2022-09-09T10:09:52;19.90;99.90
3816;DHT22;1923;48.154;11.536;2022-09-09T10:12:30;19.90;99.90
3816;DHT22;1923;48.154;11.536;2022-09-09T10:15:05;19.90;99.90
3816;DHT22;1923;48.154;11.536;2022-09-09T10:17:44;19.90;99.90
3816;DHT22;1923;48.154;11.536;2022-09-09T10:20:27;19.90;99.90
3816;DHT22;1923;48.154;11.536;2022-09-09T10:23:09;19.80;99.90
3816;DHT22;1923;48.154;11.536;2022-09-09T10:25:54;19.90;99.90
3816;DHT22;1923;48.154;11.536;2022-09-09T10:28:38;19.90;99.90
3816;DHT22;1923;48.154;11.536;2022-09-09T10:31:18;19.80;99.90
3816;DHT22;1923;48.154;11.536;2022-09-09T10:33:51;19.80;99.90
3816;DHT22;1923;48.154;11.536;2022-09-09T10:36:26;19.90;99.90
3816;DHT22;1923;48.154;11.536;2022-09-09T10:38:59;19.90;99.90
3816;DHT22;1923;48.154;11.536;2022-09-09T10:41:41;20.10;99.90
3816;DHT22;1923;48.154;11.536;2022-09-09T10:44:21;20.10;99.90
3816;DHT22;1923;48.154;11.536;2022-09-09T10:47:07;20.20;99.90
3816;DHT22;1923;48.154;11.536;2022-09-09T10:49:53;20.20;99.90
3816;DHT22;1923;48.154;11.536;2022-09-09T10:52:28;20.30;99.90
3816;DHT22;1923;48.154;11.536;2022-09-09T10:55:01;20.40;99.90
3816;DHT22;1923;48.154;11.536;2022-09-09T10:57:35;20.50;99.90
3816;DHT22;1923;48.154;11.536;2022-09-09T11:00:13;20.70;99.90
3816;DHT22;1923;48.154;11.536;2022-09-09T11:02:42;20.60;99.90
3816;DHT22;1923;48.154;11.536;2022-09-09T11:05:16;20.70;99.90
3816;DHT22;1923;48.154;11.536;2022-09-09T11:07:49;20.80;99.90
3816;DHT22;1923;48.154;11.536;2022-09-09T11:10:24;21.10;99.90
3816;DHT22;1923;48.154;11.536;2022-09-09T11:12:57;21.40;99.90
3816;DHT22;1923;48.154;11.536;2022-09-09T11:15:36;21.70;99.90
3816;DHT22;1923;48.154;11.536;2022-09-09T11:18:11;21.70;99.90
3816;DHT22;1923;48.154;11.536;2022-09-09T11:20:42;21.80;99.90
3816;DHT22;1923;48.154;11.536;2022-09-09T11:23:12;22.00;99.90
3816;DHT22;1923;48.154;11.536;2022-09-09T11:25:47;22.10;99.90
3816;DHT22;1923;48.154;11.536;2022-09-09T11:28:32;22.20;99.90
3816;DHT22;1923;48.154;11.536;2022-09-09T11:31:18;22.40;99.90
3816;DHT22;1923;48.154;11.536;2022-09-09T11:33:58;22.60;99.90
3816;DHT22;1923;48.154;11.536;2022-09-09T11:36:54;22.50;99.90
3816;DHT22;1923;48.154;11.536;2022-09-09T11:39:49;22.50;99.90
3816;DHT22;1923;48.154;11.536;2022-09-09T11:42:24;22.80;99.90
3816;DHT22;1923;48.154;11.536;2022-09-09T11:44:52;22.90;99.90
3816;DHT22;1923;48.154;11.536;2022-09-09T11:47:24;23.00;99.90
3816;DHT22;1923;48.154;11.536;2022-09-09T11:50:08;23.00;99.90
3816;DHT22;1923;48.154;11.536;2022-09-09T11:52:37;22.90;99.90
3816;DHT22;1923;48.154;11.536;2022-09-09T11:55:11;22.70;99.90
3816;DHT22;1923;48.154;11.536;2022-09-09T11:57:39;22.70;99.90
3816;DHT22;1923;48.154;11.536;2022-09-09T12:00:34;22.50;99.90
3816;DHT22;1923;48.154;11.536;2022-09-09T12:03:04;22.20;99.90
3816;DHT22;1923;48.154;11.536;2022-09-09T12:05:37;22.00;99.90
3816;DHT22;1923;48.154;11.536;2022-09-09T12:08:05;21.90;99.90
3816;DHT22;1923;48.154;11.536;2022-09-09T12:10:35;21.80;99.90
3816;DHT22;1923;48.154;11.536;2022-09-09T12:13:16;21.80;99.90
3816;DHT22;1923;48.154;11.536;2022-09-09T12:15:50;21.70;99.90
3816;DHT22;1923;48.154;11.536;2022-09-09T12:18:24;21.70;99.90
3816;DHT22;1923;48.154;11.536;2022-09-09T12:20:59;21.80;99.90
3816;DHT22;1923;48.154;11.536;2022-09-09T12:23:38;22.00;99.90
3816;DHT22;1923;48.154;11.536;2022-09-09T12:26:23;22.10;99.90
3816;DHT22;1923;48.154;11.536;2022-09-09T12:29:01;22.00;99.90
3816;DHT22;1923;48.154;11.536;2022-09-09T12:31:35;21.80;99.90
3816;DHT22;1923;48.154;11.536;2022-09-09T12:34:16;21.80;99.90
3816;DHT22;1923;48.154;11.536;2022-09-09T12:36:49;22.00;99.90
3816;DHT22;1923;48.154;11.536;2022-09-09T12:39:22;22.10;99.90
3816;DHT22;1923;48.154;11.536;2022-09-09T12:41:53;22.10;99.90
3816;DHT22;1923;48.154;11.536;2022-09-09T12:44:24;22.00;99.90
3816;DHT22;1923;48.154;11.536;2022-09-09T12:46:53;22.10;99.90
3816;DHT22;1923;48.154;11.536;2022-09-09T12:49:28;22.20;99.90
3816;DHT22;1923;48.154;11.536;2022-09-09T12:51:57;22.30;99.90
3816;DHT22;1923;48.154;11.536;2022-09-09T12:54:26;22.30;99.90
3816;DHT22;1923;48.154;11.536;2022-09-09T12:56:54;22.40;99.90
3816;DHT22;1923;48.154;11.536;2022-09-09T12:59:25;22.60;99.90
3816;DHT22;1923;48.154;11.536;2022-09-09T13:01:57;22.50;99.90
3816;DHT22;1923;48.154;11.536;2022-09-09T13:04:27;22.60;99.90
3816;DHT22;1923;48.154;11.536;2022-09-09T13:07:06;22.50;99.90
3816;DHT22;1923;48.154;11.536;2022-09-09T13:09:36;22.50;99.90
3816;DHT22;1923;48.154;11.536;2022-09-09T13:12:05;22.40;99.90
3816;DHT22;1923;48.154;11.536;2022-09-09T13:14:43;22.30;99.90
3816;DHT22;1923;48.154;11.536;2022-09-09T13:17:20;22.10;99.90
3816;DHT22;1923;48.154;11.536;2022-09-09T13:19:51;21.90;99.90
3816;DHT22;1923;48.154;11.536;2022-09-09T13:22:24;22.00;99.90
3816;DHT22;1923;48.154;11.536;2022-09-09T13:25:02;22.00;99.90
3816;DHT22;1923;48.154;11.536;2022-09-09T13:27:32;21.90;99.90
3816;DHT22;1923;48.154;11.536;2022-09-09T13:30:01;21.80;99.90
3816;DHT22;1923;48.154;11.536;2022-09-09T13:32:29;21.80;99.90
3816;DHT22;1923;48.154;11.536;2022-09-09T13:35:00;21.80;99.90
3816;DHT22;1923;48.154;11.536;2022-09-09T13:37:33;21.90;99.90
3816;DHT22;1923;48.154;11.536;2022-09-09T13:40:02;21.90;99.90
3816;DHT22;1923;48.154;11.536;2022-09-09T13:42:36;22.00;99.90
3816;DHT22;1923;48.154;11.536;2022-09-09T13:45:17;21.90;99.90
3816;DHT22;1923;48.154;11.536;2022-09-09T13:47:48;21.80;99.90
3816;DHT22;1923;48.154;11.536;2022-09-09T13:50:22;21.40;99.90
3816;DHT22;1923;48.154;11.536;2022-09-09T13:52:52;21.40;99.90
3816;DHT22;1923;48.154;11.536;2022-09-09T13:55:22;21.40;99.90
3816;DHT22;1923;48.154;11.536;2022-09-09T13:57:51;21.50;99.90
3816;DHT22;1923;48.154;11.536;2022-09-09T14:00:19;21.40;99.90
3816;DHT22;1923;48.154;11.536;2022-09-09T14:02:48;21.30;99.90
3816;DHT22;1923;48.154;11.536;2022-09-09T14:05:17;21.30;99.90
3816;DHT22;1923;48.154;11.536;2022-09-09T14:07:46;21.40;99.90
3816;DHT22;1923;48.154;11.536;2022-09-09T14:10:19;21.30;99.90
3816;DHT22;1923;48.154;11.536;2022-09-09T14:12:47;21.30;99.90
3816;DHT22;1923;48.154;11.536;2022-09-09T14:15:16;21.30;99.90
3816;DHT22;1923;48.154;11.536;2022-09-09T14:17:44;21.20;99.90
3816;DHT22;1923;48.154;11.536;2022-09-09T14:20:12;21.30;99.90
3816;DHT22;1923;48.154;11.536;2022-09-09T14:22:41;21.10;99.90
3816;DHT22;1923;48.154;11.536;2022-09-09T14:25:12;21.00;99.90
3816;DHT22;1923;48.154;11.536;2022-09-09T14:27:41;20.90;99.90
3816;DHT22;1923;48.154;11.536;2022-09-09T14:30:11;20.90;99.90
3816;DHT22;1923;48.154;11.536;2022-09-09T14:32:39;20.90;99.90
3816;DHT22;1923;48.154;11.536;2022-09-09T14:35:08;20.80;99.90
3816;DHT22;1923;48.154;11.536;2022-09-09T14:37:36;20.80;99.90
3816;DHT22;1923;48.154;11.536;2022-09-09T14:40:06;20.80;99.90
3816;DHT22;1923;48.154;11.536;2022-09-09T14:42:36;20.70;99.90
3816;DHT22;1923;48.154;11.536;2022-09-09T14:45:05;20.60;99.90
3816;DHT22;1923;48.154;11.536;2022-09-09T14:47:33;20.50;99.90
3816;DHT22;1923;48.154;11.536;2022-09-09T14:50:02;20.60;99.90
3816;DHT22;1923;48.154;11.536;2022-09-09T14:52:31;20.50;99.90
3816;DHT22;1923;48.154;11.536;2022-09-09T14:54:59;20.40;99.90
3816;DHT22;1923;48.154;11.536;2022-09-09T14:57:27;20.40;99.90
3816;DHT22;1923;48.154;11.536;2022-09-09T14:59:56;20.40;99.90
3816;DHT22;1923;48.154;11.536;2022-09-09T15:02:24;20.50;99.90
3816;DHT22;1923;48.154;11.536;2022-09-09T15:04:52;20.40;99.90
3816;DHT22;1923;48.154;11.536;2022-09-09T15:07:23;20.50;99.90
3816;DHT22;1923;48.154;11.536;2022-09-09T15:09:51;20.40;99.90
3816;DHT22;1923;48.154;11.536;2022-09-09T15:12:19;20.50;99.90
3816;DHT22;1923;48.154;11.536;2022-09-09T15:14:48;20.30;99.90
3816;DHT22;1923;48.154;11.536;2022-09-09T15:17:18;20.40;99.90
3816;DHT22;1923;48.154;11.536;2022-09-09T15:19:47;20.40;99.90
3816;DHT22;1923;48.154;11.536;2022-09-09T15:22:16;20.50;99.90
3816;DHT22;1923;48.154;11.536;2022-09-09T15:24:45;20.60;99.90
3816;DHT22;1923;48.154;11.536;2022-09-09T15:27:13;20.60;99.90
3816;DHT22;1923;48.154;11.536;2022-09-09T15:29:42;20.70;99.90
3816;DHT22;1923;48.154;11.536;2022-09-09T15:32:11;20.80;99.90
3816;DHT22;1923;48.154;11.536;2022-09-09T15:34:40;20.70;99.90
3816;DHT22;1923;48.154;11.536;2022-09-09T15:37:10;20.90;99.90
3816;DHT22;1923;48.154;11.536;2022-09-09T15:39:40;20.80;99.90
3816;DHT22;1923;48.154;11.536;2022-09-09T15:42:08;20.80;99.90
3816;DHT22;1923;48.154;11.536;2022-09-09T15:44:39;20.80;99.90
3816;DHT22;1923;48.154;11.536;2022-09-09T15:47:11;20.80;99.90
3816;DHT22;1923;48.154;11.536;2022-09-09T15:49:41;20.80;99.90
3816;DHT22;1923;48.154;11.536;2022-09-09T15:52:10;20.80;99.90
3816;DHT22;1923;48.154;11.536;2022-09-09T15:54:38;20.70;99.90
3816;DHT22;1923;48.154;11.536;2022-09-09T15:57:10;20.70;99.90
3816;DHT22;1923;48.154;11.536;2022-09-09T15:59:39;20.60;99.90
3816;DHT22;1923;48.154;11.536;2022-09-09T16:02:08;20.60;99.90
3816;DHT22;1923;48.154;11.536;2022-09-09T16:04:41;20.60;99.90
3816;DHT22;1923;48.154;11.536;2022-09-09T16:07:13;20.50;99.90
3816;DHT22;1923;48.154;11.536;2022-09-09T16:09:42;20.40;99.90
3816;DHT22;1923;48.154;11.536;2022-09-09T16:12:10;20.30;99.90
3816;DHT22;1923;48.154;11.536;2022-09-09T16:14:39;20.10;99.90
3816;DHT22;1923;48.154;11.536;2022-09-09T16:17:07;20.00;99.90